sensor_id;sensor_type;location;lat;lon;timestamp;P1;durP1;ratioP1;P2;durP2;ratioP2
21721;SDS011;11023;48.274;7.794;2022-12-29T00:01:54;2.65;;;1.27;;
21721;SDS011;11023;48.274;7.794;2022-12-29T00:04:20;2.55;;;1.00;;
21721;SDS011;11023;48.274;7.794;2022-12-29T00:06:46;4.88;;;1.30;;
21721;SDS011;11023;48.274;7.794;2022-12-29T00:09:13;3.50;;;1.13;;
21721;SDS011;11023;48.274;7.794;2022-12-29T00:11:41;3.50;;;1.10;;
21721;SDS011;11023;48.274;7.794;2022-12-29T00:14:10;2.13;;;1.10;;
21721;SDS011;11023;48.274;7.794;2022-12-29T00:16:56;3.25;;;1.17;;
21721;SDS011;11023;48.274;7.794;2022-12-29T00:19:21;3.42;;;1.10;;
21721;SDS011;11023;48.274;7.794;2022-12-29T00:22:06;2.50;;;0.95;;
21721;SDS011;11023;48.274;7.794;2022-12-29T00:24:51;2.53;;;1.40;;
21721;SDS011;11023;48.274;7.794;2022-12-29T00:27:35;4.03;;;1.50;;
21721;SDS011;11023;48.274;7.794;2022-12-29T00:30:20;3.80;;;1.20;;
21721;SDS011;11023;48.274;7.794;2022-12-29T00:33:12;2.95;;;1.05;;
21721;SDS011;11023;48.274;7.794;2022-12-29T00:36:02;4.57;;;1.23;;
21721;SDS011;11023;48.274;7.794;2022-12-29T00:38:31;3.55;;;1.02;;
21721;SDS011;11023;48.274;7.794;2022-12-29T00:41:19;5.50;;;1.10;;
21721;SDS011;11023;48.274;7.794;2022-12-29T00:44:03;1.92;;;0.85;;
21721;SDS011;11023;48.274;7.794;2022-12-29T00:46:32;4.55;;;1.17;;
21721;SDS011;11023;48.274;7.794;2022-12-29T00:48:59;4.75;;;1.30;;
21721;SDS011;11023;48.274;7.794;2022-12-29T00:51:44;2.33;;;1.30;;
21721;SDS011;11023;48.274;7.794;2022-12-29T00:54:10;3.17;;;1.25;;
21721;SDS011;11023;48.274;7.794;2022-12-29T00:56:36;3.00;;;1.00;;
21721;SDS011;11023;48.274;7.794;2022-12-29T00:59:03;2.92;;;1.10;;
21721;SDS011;11023;48.274;7.794;2022-12-29T01:01:30;4.55;;;1.05;;
21721;SDS011;11023;48.274;7.794;2022-12-29T01:03:55;2.72;;;1.05;;
21721;SDS011;11023;48.274;7.794;2022-12-29T01:06:21;2.33;;;1.05;;
21721;SDS011;11023;48.274;7.794;2022-12-29T01:08:48;1.98;;;1.10;;
21721;SDS011;11023;48.274;7.794;2022-12-29T01:11:33;3.42;;;1.10;;
21721;SDS011;11023;48.274;7.794;2022-12-29T01:14:00;3.03;;;1.30;;
21721;SDS011;11023;48.274;7.794;2022-12-29T01:16:26;3.97;;;1.20;;
21721;SDS011;11023;48.274;7.794;2022-12-29T01:18:52;3.65;;;1.38;;
21721;SDS011;11023;48.274;7.794;2022-12-29T01:21:17;1.65;;;0.88;;
21721;SDS011;11023;48.274;7.794;2022-12-29T01:23:44;1.73;;;1.00;;
21721;SDS011;11023;48.274;7.794;2022-12-29T01:26:10;3.28;;;0.90;;
21721;SDS011;11023;48.274;7.794;2022-12-29T01:28:37;1.23;;;0.90;;
21721;SDS011;11023;48.274;7.794;2022-12-29T01:31:10;2.60;;;1.05;;
21721;SDS011;11023;48.274;7.794;2022-12-29T01:33:37;3.50;;;1.10;;
21721;SDS011;11023;48.274;7.794;2022-12-29T01:36:04;2.72;;;1.00;;
21721;SDS011;11023;48.274;7.794;2022-12-29T01:38:32;2.80;;;1.25;;
21721;SDS011;11023;48.274;7.794;2022-12-29T01:40:58;3.42;;;1.30;;
21721;SDS011;11023;48.274;7.794;2022-12-29T01:43:44;2.63;;;1.00;;
21721;SDS011;11023;48.274;7.794;2022-12-29T01:46:28;1.73;;;0.98;;
21721;SDS011;11023;48.274;7.794;2022-12-29T01:49:14;3.92;;;1.20;;
21721;SDS011;11023;48.274;7.794;2022-12-29T01:51:41;3.28;;;1.17;;
21721;SDS011;11023;48.274;7.794;2022-12-29T01:54:24;3.42;;;0.93;;
21721;SDS011;11023;48.274;7.794;2022-12-29T01:56:55;2.33;;;1.00;;
21721;SDS011;11023;48.274;7.794;2022-12-29T01:59:33;3.28;;;1.10;;
21721;SDS011;11023;48.274;7.794;2022-12-29T02:02:03;2.70;;;1.10;;
21721;SDS011;11023;48.274;7.794;2022-12-29T02:04:29;2.15;;;1.10;;
21721;SDS011;11023;48.274;7.794;2022-12-29T02:07:00;3.25;;;1.23;;
21721;SDS011;11023;48.274;7.794;2022-12-29T02:09:29;3.17;;;1.25;;
21721;SDS011;11023;48.274;7.794;2022-12-29T02:11:56;2.35;;;1.17;;
21721;SDS011;11023;48.274;7.794;2022-12-29T02:14:23;2.33;;;1.70;;
21721;SDS011;11023;48.274;7.794;2022-12-29T02:19:34;3.05;;;1.00;;
21721;SDS011;11023;48.274;7.794;2022-12-29T02:30:46;1.85;;;1.10;;
21721;SDS011;11023;48.274;7.794;2022-12-29T02:38:40;2.47;;;1.27;;
21721;SDS011;11023;48.274;7.794;2022-12-29T02:41:23;2.88;;;1.15;;
21721;SDS011;11023;48.274;7.794;2022-12-29T02:49:15;2.53;;;1.20;;
21721;SDS011;11023;48.274;7.794;2022-12-29T02:51:55;3.03;;;1.42;;
21721;SDS011;11023;48.274;7.794;2022-12-29T02:54:29;1.65;;;0.90;;
21721;SDS011;11023;48.274;7.794;2022-12-29T02:57:26;3.05;;;1.15;;
21721;SDS011;11023;48.274;7.794;2022-12-29T03:00:03;2.67;;;1.40;;
21721;SDS011;11023;48.274;7.794;2022-12-29T03:05:49;3.85;;;1.40;;
21721;SDS011;11023;48.274;7.794;2022-12-29T03:08:39;5.25;;;1.40;;
21721;SDS011;11023;48.274;7.794;2022-12-29T03:11:21;5.00;;;1.30;;
21721;SDS011;11023;48.274;7.794;2022-12-29T03:14:20;3.80;;;1.33;;
21721;SDS011;11023;48.274;7.794;2022-12-29T03:17:40;3.47;;;1.38;;
21721;SDS011;11023;48.274;7.794;2022-12-29T03:20:14;4.78;;;1.42;;
21721;SDS011;11023;48.274;7.794;2022-12-29T03:22:47;2.90;;;1.33;;
21721;SDS011;11023;48.274;7.794;2022-12-29T03:27:50;3.15;;;1.70;;
21721;SDS011;11023;48.274;7.794;2022-12-29T03:30:40;4.57;;;1.80;;
21721;SDS011;11023;48.274;7.794;2022-12-29T03:33:10;4.07;;;1.48;;
21721;SDS011;11023;48.274;7.794;2022-12-29T03:35:40;3.13;;;1.70;;
21721;SDS011;11023;48.274;7.794;2022-12-29T03:38:12;3.17;;;1.73;;
21721;SDS011;11023;48.274;7.794;2022-12-29T03:40:52;3.15;;;1.60;;
21721;SDS011;11023;48.274;7.794;2022-12-29T03:43:21;4.05;;;1.60;;
21721;SDS011;11023;48.274;7.794;2022-12-29T03:45:48;5.68;;;1.80;;
21721;SDS011;11023;48.274;7.794;2022-12-29T03:48:14;4.03;;;2.20;;
21721;SDS011;11023;48.274;7.794;2022-12-29T03:50:39;3.90;;;1.75;;
21721;SDS011;11023;48.274;7.794;2022-12-29T03:53:06;4.70;;;2.10;;
21721;SDS011;11023;48.274;7.794;2022-12-29T03:55:32;6.70;;;2.00;;
21721;SDS011;11023;48.274;7.794;2022-12-29T03:57:58;3.28;;;1.90;;
21721;SDS011;11023;48.274;7.794;2022-12-29T04:00:23;4.85;;;1.75;;
21721;SDS011;11023;48.274;7.794;2022-12-29T04:02:49;4.07;;;1.90;;
21721;SDS011;11023;48.274;7.794;2022-12-29T04:05:15;2.30;;;1.77;;
21721;SDS011;11023;48.274;7.794;2022-12-29T04:07:41;5.70;;;1.83;;
21721;SDS011;11023;48.274;7.794;2022-12-29T04:10:08;4.05;;;2.10;;
21721;SDS011;11023;48.274;7.794;2022-12-29T04:12:34;4.80;;;2.22;;
21721;SDS011;11023;48.274;7.794;2022-12-29T04:14:59;3.90;;;1.95;;
21721;SDS011;11023;48.274;7.794;2022-12-29T04:17:25;5.22;;;1.90;;
21721;SDS011;11023;48.274;7.794;2022-12-29T04:19:51;5.20;;;2.15;;
21721;SDS011;11023;48.274;7.794;2022-12-29T04:22:37;2.75;;;1.85;;
21721;SDS011;11023;48.274;7.794;2022-12-29T04:25:03;3.72;;;1.80;;
21721;SDS011;11023;48.274;7.794;2022-12-29T04:27:29;3.20;;;1.52;;
21721;SDS011;11023;48.274;7.794;2022-12-29T04:29:54;2.92;;;1.58;;
21721;SDS011;11023;48.274;7.794;2022-12-29T04:32:20;4.97;;;1.85;;
21721;SDS011;11023;48.274;7.794;2022-12-29T04:34:46;3.17;;;1.75;;
21721;SDS011;11023;48.274;7.794;2022-12-29T04:37:11;3.55;;;1.85;;
21721;SDS011;11023;48.274;7.794;2022-12-29T04:39:37;2.63;;;1.75;;
21721;SDS011;11023;48.274;7.794;2022-12-29T04:42:03;4.22;;;1.50;;
21721;SDS011;11023;48.274;7.794;2022-12-29T04:44:28;3.80;;;1.92;;
21721;SDS011;11023;48.274;7.794;2022-12-29T04:46:54;3.67;;;1.70;;
21721;SDS011;11023;48.274;7.794;2022-12-29T04:49:20;5.43;;;1.70;;
21721;SDS011;11023;48.274;7.794;2022-12-29T04:51:46;6.50;;;1.60;;
21721;SDS011;11023;48.274;7.794;2022-12-29T04:54:11;2.85;;;1.92;;
21721;SDS011;11023;48.274;7.794;2022-12-29T04:56:37;2.97;;;1.80;;
21721;SDS011;11023;48.274;7.794;2022-12-29T04:59:03;4.10;;;1.65;;
21721;SDS011;11023;48.274;7.794;2022-12-29T05:01:28;5.38;;;1.90;;
21721;SDS011;11023;48.274;7.794;2022-12-29T05:03:54;2.33;;;1.60;;
21721;SDS011;11023;48.274;7.794;2022-12-29T05:06:20;3.17;;;1.67;;
21721;SDS011;11023;48.274;7.794;2022-12-29T05:08:46;6.50;;;2.20;;
21721;SDS011;11023;48.274;7.794;2022-12-29T05:11:11;6.45;;;1.85;;
21721;SDS011;11023;48.274;7.794;2022-12-29T05:13:37;4.30;;;1.98;;
21721;SDS011;11023;48.274;7.794;2022-12-29T05:16:03;3.42;;;2.10;;
21721;SDS011;11023;48.274;7.794;2022-12-29T05:18:30;4.35;;;2.13;;
21721;SDS011;11023;48.274;7.794;2022-12-29T05:20:55;4.50;;;1.83;;
21721;SDS011;11023;48.274;7.794;2022-12-29T05:23:21;4.90;;;2.20;;
21721;SDS011;11023;48.274;7.794;2022-12-29T05:25:47;6.50;;;2.55;;
21721;SDS011;11023;48.274;7.794;2022-12-29T05:28:14;6.35;;;2.00;;
21721;SDS011;11023;48.274;7.794;2022-12-29T05:30:39;4.68;;;2.30;;
21721;SDS011;11023;48.274;7.794;2022-12-29T05:33:06;5.88;;;2.00;;
21721;SDS011;11023;48.274;7.794;2022-12-29T05:35:32;3.13;;;2.17;;
21721;SDS011;11023;48.274;7.794;2022-12-29T05:37:57;5.63;;;2.10;;
21721;SDS011;11023;48.274;7.794;2022-12-29T05:40:23;4.90;;;2.00;;
21721;SDS011;11023;48.274;7.794;2022-12-29T05:42:49;3.92;;;2.00;;
21721;SDS011;11023;48.274;7.794;2022-12-29T05:45:15;6.50;;;2.35;;
21721;SDS011;11023;48.274;7.794;2022-12-29T05:47:40;3.95;;;1.77;;
21721;SDS011;11023;48.274;7.794;2022-12-29T05:50:06;3.22;;;1.77;;
21721;SDS011;11023;48.274;7.794;2022-12-29T05:52:34;3.15;;;1.85;;
21721;SDS011;11023;48.274;7.794;2022-12-29T05:55:00;5.03;;;2.13;;
21721;SDS011;11023;48.274;7.794;2022-12-29T05:57:26;6.03;;;1.92;;
21721;SDS011;11023;48.274;7.794;2022-12-29T05:59:51;4.80;;;2.10;;
21721;SDS011;11023;48.274;7.794;2022-12-29T06:02:17;6.00;;;2.20;;
21721;SDS011;11023;48.274;7.794;2022-12-29T06:04:43;3.67;;;2.22;;
21721;SDS011;11023;48.274;7.794;2022-12-29T06:07:09;4.57;;;1.80;;
21721;SDS011;11023;48.274;7.794;2022-12-29T06:09:35;5.70;;;1.80;;
21721;SDS011;11023;48.274;7.794;2022-12-29T06:12:01;5.70;;;1.92;;
21721;SDS011;11023;48.274;7.794;2022-12-29T06:14:26;5.65;;;2.00;;
21721;SDS011;11023;48.274;7.794;2022-12-29T06:16:52;4.68;;;2.05;;
21721;SDS011;11023;48.274;7.794;2022-12-29T06:19:18;4.88;;;2.00;;
21721;SDS011;11023;48.274;7.794;2022-12-29T06:21:44;3.63;;;2.00;;
21721;SDS011;11023;48.274;7.794;2022-12-29T06:24:09;4.60;;;2.05;;
21721;SDS011;11023;48.274;7.794;2022-12-29T06:26:36;6.70;;;1.80;;
21721;SDS011;11023;48.274;7.794;2022-12-29T06:29:02;5.25;;;1.92;;
21721;SDS011;11023;48.274;7.794;2022-12-29T06:31:28;3.45;;;1.85;;
21721;SDS011;11023;48.274;7.794;2022-12-29T06:33:54;4.05;;;2.00;;
21721;SDS011;11023;48.274;7.794;2022-12-29T06:36:19;3.15;;;1.73;;
21721;SDS011;11023;48.274;7.794;2022-12-29T06:38:45;4.10;;;1.70;;
21721;SDS011;11023;48.274;7.794;2022-12-29T06:41:11;4.30;;;1.63;;
21721;SDS011;11023;48.274;7.794;2022-12-29T06:43:37;7.38;;;1.88;;
21721;SDS011;11023;48.274;7.794;2022-12-29T06:46:03;4.07;;;1.65;;
21721;SDS011;11023;48.274;7.794;2022-12-29T06:48:30;3.05;;;1.73;;
21721;SDS011;11023;48.274;7.794;2022-12-29T06:50:56;5.35;;;1.85;;
21721;SDS011;11023;48.274;7.794;2022-12-29T06:53:22;5.07;;;1.70;;
21721;SDS011;11023;48.274;7.794;2022-12-29T06:55:47;2.50;;;1.63;;
21721;SDS011;11023;48.274;7.794;2022-12-29T06:58:13;7.63;;;2.10;;
21721;SDS011;11023;48.274;7.794;2022-12-29T07:00:39;3.63;;;1.77;;
21721;SDS011;11023;48.274;7.794;2022-12-29T07:03:05;2.38;;;1.67;;
21721;SDS011;11023;48.274;7.794;2022-12-29T07:05:32;4.50;;;1.70;;
21721;SDS011;11023;48.274;7.794;2022-12-29T07:07:58;4.97;;;1.50;;
21721;SDS011;11023;48.274;7.794;2022-12-29T07:10:24;4.63;;;1.70;;
21721;SDS011;11023;48.274;7.794;2022-12-29T07:12:50;5.55;;;1.70;;
21721;SDS011;11023;48.274;7.794;2022-12-29T07:15:16;4.07;;;1.63;;
21721;SDS011;11023;48.274;7.794;2022-12-29T07:17:41;3.13;;;1.35;;
21721;SDS011;11023;48.274;7.794;2022-12-29T07:20:07;2.83;;;1.50;;
21721;SDS011;11023;48.274;7.794;2022-12-29T07:22:34;2.78;;;1.50;;
21721;SDS011;11023;48.274;7.794;2022-12-29T07:25:00;6.50;;;1.77;;
21721;SDS011;11023;48.274;7.794;2022-12-29T07:27:25;4.55;;;1.92;;
21721;SDS011;11023;48.274;7.794;2022-12-29T07:29:52;3.63;;;1.65;;
21721;SDS011;11023;48.274;7.794;2022-12-29T07:32:18;2.85;;;1.60;;
21721;SDS011;11023;48.274;7.794;2022-12-29T07:34:44;3.90;;;1.40;;
21721;SDS011;11023;48.274;7.794;2022-12-29T07:37:12;2.40;;;1.40;;
21721;SDS011;11023;48.274;7.794;2022-12-29T07:39:42;3.83;;;1.60;;
21721;SDS011;11023;48.274;7.794;2022-12-29T07:42:08;3.40;;;1.38;;
21721;SDS011;11023;48.274;7.794;2022-12-29T07:44:36;4.80;;;1.40;;
21721;SDS011;11023;48.274;7.794;2022-12-29T07:47:01;3.70;;;1.73;;
21721;SDS011;11023;48.274;7.794;2022-12-29T07:49:27;5.97;;;1.48;;
21721;SDS011;11023;48.274;7.794;2022-12-29T07:51:53;3.65;;;1.60;;
21721;SDS011;11023;48.274;7.794;2022-12-29T07:54:19;2.85;;;1.30;;
21721;SDS011;11023;48.274;7.794;2022-12-29T07:56:45;2.45;;;1.20;;
21721;SDS011;11023;48.274;7.794;2022-12-29T07:59:10;2.92;;;1.38;;
21721;SDS011;11023;48.274;7.794;2022-12-29T08:01:37;3.35;;;1.42;;
21721;SDS011;11023;48.274;7.794;2022-12-29T08:04:03;3.85;;;1.67;;
21721;SDS011;11023;48.274;7.794;2022-12-29T08:06:29;2.38;;;1.30;;
21721;SDS011;11023;48.274;7.794;2022-12-29T08:08:59;4.65;;;1.40;;
21721;SDS011;11023;48.274;7.794;2022-12-29T08:11:26;6.78;;;1.40;;
21721;SDS011;11023;48.274;7.794;2022-12-29T08:13:52;5.85;;;1.27;;
21721;SDS011;11023;48.274;7.794;2022-12-29T08:16:18;3.78;;;1.40;;
21721;SDS011;11023;48.274;7.794;2022-12-29T08:18:43;1.95;;;1.23;;
21721;SDS011;11023;48.274;7.794;2022-12-29T08:21:09;2.20;;;1.27;;
21721;SDS011;11023;48.274;7.794;2022-12-29T08:23:35;2.85;;;1.42;;
21721;SDS011;11023;48.274;7.794;2022-12-29T08:26:02;3.10;;;1.55;;
21721;SDS011;11023;48.274;7.794;2022-12-29T08:28:30;4.45;;;1.60;;
21721;SDS011;11023;48.274;7.794;2022-12-29T08:31:00;2.83;;;1.45;;
21721;SDS011;11023;48.274;7.794;2022-12-29T08:33:28;4.13;;;1.73;;
21721;SDS011;11023;48.274;7.794;2022-12-29T08:35:59;7.60;;;1.80;;
21721;SDS011;11023;48.274;7.794;2022-12-29T08:38:29;3.28;;;1.27;;
21721;SDS011;11023;48.274;7.794;2022-12-29T08:40:55;4.07;;;1.60;;
21721;SDS011;11023;48.274;7.794;2022-12-29T08:43:22;5.18;;;1.48;;
21721;SDS011;11023;48.274;7.794;2022-12-29T08:45:49;4.75;;;1.55;;
21721;SDS011;11023;48.274;7.794;2022-12-29T08:48:14;5.68;;;1.58;;
21721;SDS011;11023;48.274;7.794;2022-12-29T08:50:43;3.08;;;1.60;;
21721;SDS011;11023;48.274;7.794;2022-12-29T08:53:09;5.38;;;1.55;;
21721;SDS011;11023;48.274;7.794;2022-12-29T08:55:35;4.57;;;1.60;;
21721;SDS011;11023;48.274;7.794;2022-12-29T08:58:00;2.95;;;1.35;;
21721;SDS011;11023;48.274;7.794;2022-12-29T09:00:26;2.15;;;1.45;;
21721;SDS011;11023;48.274;7.794;2022-12-29T09:02:52;2.97;;;1.10;;
21721;SDS011;11023;48.274;7.794;2022-12-29T09:05:18;6.32;;;1.60;;
21721;SDS011;11023;48.274;7.794;2022-12-29T09:07:46;4.63;;;1.70;;
21721;SDS011;11023;48.274;7.794;2022-12-29T09:10:12;4.47;;;1.63;;
21721;SDS011;11023;48.274;7.794;2022-12-29T09:12:38;3.85;;;1.65;;
21721;SDS011;11023;48.274;7.794;2022-12-29T09:15:05;3.65;;;1.40;;
21721;SDS011;11023;48.274;7.794;2022-12-29T09:17:31;3.53;;;1.40;;
21721;SDS011;11023;48.274;7.794;2022-12-29T09:20:12;3.70;;;1.35;;
21721;SDS011;11023;48.274;7.794;2022-12-29T09:22:39;2.85;;;1.40;;
21721;SDS011;11023;48.274;7.794;2022-12-29T09:25:06;3.92;;;1.42;;
21721;SDS011;11023;48.274;7.794;2022-12-29T09:27:34;3.28;;;1.52;;
21721;SDS011;11023;48.274;7.794;2022-12-29T09:30:02;6.60;;;1.80;;
21721;SDS011;11023;48.274;7.794;2022-12-29T09:32:35;4.88;;;1.67;;
21721;SDS011;11023;48.274;7.794;2022-12-29T09:35:02;1.80;;;1.33;;
21721;SDS011;11023;48.274;7.794;2022-12-29T09:37:29;2.70;;;1.65;;
21721;SDS011;11023;48.274;7.794;2022-12-29T09:39:55;4.22;;;1.65;;
21721;SDS011;11023;48.274;7.794;2022-12-29T09:45:27;3.10;;;1.30;;
21721;SDS011;11023;48.274;7.794;2022-12-29T09:47:58;4.07;;;1.40;;
21721;SDS011;11023;48.274;7.794;2022-12-29T09:50:29;3.10;;;1.40;;
21721;SDS011;11023;48.274;7.794;2022-12-29T09:55:55;5.85;;;1.60;;
21721;SDS011;11023;48.274;7.794;2022-12-29T10:01:05;6.32;;;1.42;;
21721;SDS011;11023;48.274;7.794;2022-12-29T10:03:46;2.08;;;1.45;;
21721;SDS011;11023;48.274;7.794;2022-12-29T10:06:37;7.60;;;1.52;;
21721;SDS011;11023;48.274;7.794;2022-12-29T10:12:13;6.47;;;1.60;;
21721;SDS011;11023;48.274;7.794;2022-12-29T10:17:53;5.03;;;2.35;;
21721;SDS011;11023;48.274;7.794;2022-12-29T10:20:52;2.58;;;1.48;;
21721;SDS011;11023;48.274;7.794;2022-12-29T10:23:41;2.97;;;1.40;;
21721;SDS011;11023;48.274;7.794;2022-12-29T10:26:13;3.33;;;1.30;;
21721;SDS011;11023;48.274;7.794;2022-12-29T10:31:16;3.58;;;1.30;;
21721;SDS011;11023;48.274;7.794;2022-12-29T10:33:57;4.93;;;1.45;;
21721;SDS011;11023;48.274;7.794;2022-12-29T10:36:44;4.68;;;1.30;;
21721;SDS011;11023;48.274;7.794;2022-12-29T10:39:19;4.22;;;1.30;;
21721;SDS011;11023;48.274;7.794;2022-12-29T10:42:11;2.42;;;1.25;;
21721;SDS011;11023;48.274;7.794;2022-12-29T10:44:45;2.33;;;1.50;;
21721;SDS011;11023;48.274;7.794;2022-12-29T10:47:13;2.28;;;1.40;;
21721;SDS011;11023;48.274;7.794;2022-12-29T10:49:44;3.90;;;1.77;;
21721;SDS011;11023;48.274;7.794;2022-12-29T10:52:12;3.75;;;1.52;;
21721;SDS011;11023;48.274;7.794;2022-12-29T10:55:00;2.92;;;1.55;;
21721;SDS011;11023;48.274;7.794;2022-12-29T11:00:01;4.30;;;1.60;;
21721;SDS011;11023;48.274;7.794;2022-12-29T11:02:43;5.82;;;1.55;;
21721;SDS011;11023;48.274;7.794;2022-12-29T11:08:12;4.18;;;1.70;;
21721;SDS011;11023;48.274;7.794;2022-12-29T11:10:43;4.15;;;1.48;;
21721;SDS011;11023;48.274;7.794;2022-12-29T11:13:15;4.47;;;1.50;;
21721;SDS011;11023;48.274;7.794;2022-12-29T11:15:49;3.47;;;1.90;;
21721;SDS011;11023;48.274;7.794;2022-12-29T11:18:18;4.80;;;1.85;;
21721;SDS011;11023;48.274;7.794;2022-12-29T11:20:50;4.05;;;1.60;;
21721;SDS011;11023;48.274;7.794;2022-12-29T11:23:40;5.07;;;1.67;;
21721;SDS011;11023;48.274;7.794;2022-12-29T11:26:22;2.95;;;1.52;;
21721;SDS011;11023;48.274;7.794;2022-12-29T11:29:36;3.58;;;1.77;;
21721;SDS011;11023;48.274;7.794;2022-12-29T11:32:28;7.95;;;1.80;;
21721;SDS011;11023;48.274;7.794;2022-12-29T11:34:55;3.90;;;1.83;;
21721;SDS011;11023;48.274;7.794;2022-12-29T11:37:36;5.72;;;2.00;;
21721;SDS011;11023;48.274;7.794;2022-12-29T11:40:05;4.95;;;1.80;;
21721;SDS011;11023;48.274;7.794;2022-12-29T11:42:41;3.95;;;1.75;;
21721;SDS011;11023;48.274;7.794;2022-12-29T11:45:33;3.72;;;1.98;;
21721;SDS011;11023;48.274;7.794;2022-12-29T11:48:11;6.07;;;2.22;;
21721;SDS011;11023;48.274;7.794;2022-12-29T11:50:42;3.72;;;1.90;;
21721;SDS011;11023;48.274;7.794;2022-12-29T11:58:27;3.80;;;1.80;;
21721;SDS011;11023;48.274;7.794;2022-12-29T12:00:54;4.38;;;1.90;;
21721;SDS011;11023;48.274;7.794;2022-12-29T12:03:24;3.78;;;1.70;;
21721;SDS011;11023;48.274;7.794;2022-12-29T12:05:58;3.95;;;1.75;;
21721;SDS011;11023;48.274;7.794;2022-12-29T12:08:40;6.28;;;1.73;;
21721;SDS011;11023;48.274;7.794;2022-12-29T12:14:04;4.88;;;1.80;;
21721;SDS011;11023;48.274;7.794;2022-12-29T12:16:54;3.13;;;1.80;;
21721;SDS011;11023;48.274;7.794;2022-12-29T12:24:57;4.53;;;1.65;;
21721;SDS011;11023;48.274;7.794;2022-12-29T12:30:27;4.25;;;1.95;;
21721;SDS011;11023;48.274;7.794;2022-12-29T12:33:00;4.60;;;2.70;;
21721;SDS011;11023;48.274;7.794;2022-12-29T12:35:41;3.97;;;1.90;;
21721;SDS011;11023;48.274;7.794;2022-12-29T12:41:13;5.30;;;1.60;;
21721;SDS011;11023;48.274;7.794;2022-12-29T12:53:37;4.13;;;1.63;;
21721;SDS011;11023;48.274;7.794;2022-12-29T13:02:08;2.33;;;1.50;;
21721;SDS011;11023;48.274;7.794;2022-12-29T13:16:22;4.05;;;1.30;;
21721;SDS011;11023;48.274;7.794;2022-12-29T13:27:05;2.95;;;1.75;;
21721;SDS011;11023;48.274;7.794;2022-12-29T13:29:52;3.67;;;1.80;;
21721;SDS011;11023;48.274;7.794;2022-12-29T13:32:37;7.47;;;1.60;;
21721;SDS011;11023;48.274;7.794;2022-12-29T13:38:09;5.03;;;1.75;;
21721;SDS011;11023;48.274;7.794;2022-12-29T13:40:49;4.10;;;1.90;;
21721;SDS011;11023;48.274;7.794;2022-12-29T13:43:19;4.20;;;1.80;;
21721;SDS011;11023;48.274;7.794;2022-12-29T13:45:48;4.75;;;1.70;;
21721;SDS011;11023;48.274;7.794;2022-12-29T13:48:35;4.50;;;1.60;;
21721;SDS011;11023;48.274;7.794;2022-12-29T13:51:15;5.75;;;1.67;;
21721;SDS011;11023;48.274;7.794;2022-12-29T13:53:50;6.18;;;2.00;;
21721;SDS011;11023;48.274;7.794;2022-12-29T13:56:37;4.90;;;1.70;;
21721;SDS011;11023;48.274;7.794;2022-12-29T14:01:58;5.30;;;2.47;;
21721;SDS011;11023;48.274;7.794;2022-12-29T14:04:28;5.30;;;1.80;;
21721;SDS011;11023;48.274;7.794;2022-12-29T14:09:50;3.60;;;1.60;;
21721;SDS011;11023;48.274;7.794;2022-12-29T14:12:28;4.88;;;1.95;;
21721;SDS011;11023;48.274;7.794;2022-12-29T14:15:04;6.30;;;2.20;;
21721;SDS011;11023;48.274;7.794;2022-12-29T14:17:36;3.30;;;1.77;;
21721;SDS011;11023;48.274;7.794;2022-12-29T14:20:05;4.10;;;1.77;;
21721;SDS011;11023;48.274;7.794;2022-12-29T14:22:55;3.45;;;1.40;;
21721;SDS011;11023;48.274;7.794;2022-12-29T14:28:27;6.80;;;3.20;;
21721;SDS011;11023;48.274;7.794;2022-12-29T14:30:59;2.17;;;1.80;;
21721;SDS011;11023;48.274;7.794;2022-12-29T14:33:32;4.95;;;2.08;;
21721;SDS011;11023;48.274;7.794;2022-12-29T14:36:19;5.07;;;1.80;;
21721;SDS011;11023;48.274;7.794;2022-12-29T14:38:57;2.70;;;1.52;;
21721;SDS011;11023;48.274;7.794;2022-12-29T14:41:27;4.40;;;1.58;;
21721;SDS011;11023;48.274;7.794;2022-12-29T14:43:58;3.80;;;1.55;;
21721;SDS011;11023;48.274;7.794;2022-12-29T14:49:22;4.00;;;2.00;;
21721;SDS011;11023;48.274;7.794;2022-12-29T14:51:52;3.08;;;1.67;;
21721;SDS011;11023;48.274;7.794;2022-12-29T14:57:07;7.32;;;1.90;;
21721;SDS011;11023;48.274;7.794;2022-12-29T14:59:44;3.42;;;1.73;;
21721;SDS011;11023;48.274;7.794;2022-12-29T15:02:19;5.15;;;2.10;;
21721;SDS011;11023;48.274;7.794;2022-12-29T15:04:48;5.70;;;1.80;;
21721;SDS011;11023;48.274;7.794;2022-12-29T15:07:15;7.38;;;2.03;;
21721;SDS011;11023;48.274;7.794;2022-12-29T15:09:57;4.43;;;2.35;;
21721;SDS011;11023;48.274;7.794;2022-12-29T15:12:37;3.40;;;1.90;;
21721;SDS011;11023;48.274;7.794;2022-12-29T15:15:17;7.95;;;2.00;;
21721;SDS011;11023;48.274;7.794;2022-12-29T15:17:46;3.45;;;1.92;;
21721;SDS011;11023;48.274;7.794;2022-12-29T15:22:54;4.68;;;2.10;;
21721;SDS011;11023;48.274;7.794;2022-12-29T15:25:20;5.90;;;2.10;;
21721;SDS011;11023;48.274;7.794;2022-12-29T15:28:05;4.80;;;2.10;;
21721;SDS011;11023;48.274;7.794;2022-12-29T15:30:32;5.18;;;2.00;;
21721;SDS011;11023;48.274;7.794;2022-12-29T15:32:59;6.15;;;2.15;;
21721;SDS011;11023;48.274;7.794;2022-12-29T15:37:59;4.53;;;1.60;;
21721;SDS011;11023;48.274;7.794;2022-12-29T15:40:32;3.65;;;1.65;;
21721;SDS011;11023;48.274;7.794;2022-12-29T15:43:02;4.50;;;1.70;;
21721;SDS011;11023;48.274;7.794;2022-12-29T15:45:46;5.80;;;1.80;;
21721;SDS011;11023;48.274;7.794;2022-12-29T15:48:15;3.00;;;1.30;;
21721;SDS011;11023;48.274;7.794;2022-12-29T15:50:43;2.55;;;1.10;;
21721;SDS011;11023;48.274;7.794;2022-12-29T15:53:11;3.50;;;1.17;;
21721;SDS011;11023;48.274;7.794;2022-12-29T15:55:43;2.50;;;1.33;;
21721;SDS011;11023;48.274;7.794;2022-12-29T15:58:20;3.90;;;1.60;;
21721;SDS011;11023;48.274;7.794;2022-12-29T16:00:56;3.95;;;1.30;;
21721;SDS011;11023;48.274;7.794;2022-12-29T16:03:24;2.47;;;1.20;;
21721;SDS011;11023;48.274;7.794;2022-12-29T16:05:54;2.65;;;1.02;;
21721;SDS011;11023;48.274;7.794;2022-12-29T16:08:29;2.88;;;1.00;;
21721;SDS011;11023;48.274;7.794;2022-12-29T16:10:58;2.05;;;1.10;;
21721;SDS011;11023;48.274;7.794;2022-12-29T16:13:33;2.15;;;1.27;;
21721;SDS011;11023;48.274;7.794;2022-12-29T16:16:07;3.03;;;1.00;;
21721;SDS011;11023;48.274;7.794;2022-12-29T16:18:41;4.65;;;1.35;;
21721;SDS011;11023;48.274;7.794;2022-12-29T16:21:31;5.18;;;1.60;;
21721;SDS011;11023;48.274;7.794;2022-12-29T16:24:00;5.30;;;3.22;;
21721;SDS011;11023;48.274;7.794;2022-12-29T16:26:30;9.60;;;4.63;;
21721;SDS011;11023;48.274;7.794;2022-12-29T16:28:58;12.55;;;7.85;;
21721;SDS011;11023;48.274;7.794;2022-12-29T16:31:36;10.15;;;7.50;;
21721;SDS011;11023;48.274;7.794;2022-12-29T16:34:32;9.82;;;5.55;;
21721;SDS011;11023;48.274;7.794;2022-12-29T16:37:24;7.55;;;4.72;;
21721;SDS011;11023;48.274;7.794;2022-12-29T16:39:56;7.18;;;4.47;;
21721;SDS011;11023;48.274;7.794;2022-12-29T16:42:53;14.80;;;7.65;;
21721;SDS011;11023;48.274;7.794;2022-12-29T16:45:43;13.85;;;7.93;;
21721;SDS011;11023;48.274;7.794;2022-12-29T16:50:50;12.55;;;8.38;;
21721;SDS011;11023;48.274;7.794;2022-12-29T16:53:27;14.82;;;8.98;;
21721;SDS011;11023;48.274;7.794;2022-12-29T16:55:57;6.28;;;2.90;;
21721;SDS011;11023;48.274;7.794;2022-12-29T16:58:28;4.43;;;1.75;;
21721;SDS011;11023;48.274;7.794;2022-12-29T17:00:57;3.15;;;1.20;;
21721;SDS011;11023;48.274;7.794;2022-12-29T17:03:27;13.20;;;5.20;;
21721;SDS011;11023;48.274;7.794;2022-12-29T17:05:59;23.10;;;11.88;;
21721;SDS011;11023;48.274;7.794;2022-12-29T17:08:24;20.52;;;10.20;;
21721;SDS011;11023;48.274;7.794;2022-12-29T17:10:50;15.48;;;8.23;;
21721;SDS011;11023;48.274;7.794;2022-12-29T17:13:37;5.88;;;2.90;;
21721;SDS011;11023;48.274;7.794;2022-12-29T17:16:04;3.90;;;2.40;;
21721;SDS011;11023;48.274;7.794;2022-12-29T17:18:32;3.50;;;2.17;;
21721;SDS011;11023;48.274;7.794;2022-12-29T17:20:59;4.55;;;2.53;;
21721;SDS011;11023;48.274;7.794;2022-12-29T17:23:25;3.17;;;2.35;;
21721;SDS011;11023;48.274;7.794;2022-12-29T17:25:51;6.22;;;2.65;;